This is the latest recevied weather packets stored in our database for station/object K3PPP. If no packets are shown the sender has not sent any weather packets the latest 1 day(s).
| Time | Temp. | Humidity | Pressure | Rain* | Wind** | Luminosity | Snow |
|---|---|---|---|---|---|---|---|
| 1778045633 | 14.44° C | 70% | 1009.5 hPa | 0 mm | - | 0 W/m² | - |
| 1778045331 | 14.44° C | 70% | 1010 hPa | 0 mm | - | 0 W/m² | - |
| 1778045029 | 14.44° C | 70% | 1009.8 hPa | 0 mm | - | 0 W/m² | - |
| 1778044120 | 13.89° C | 72% | 1009.8 hPa | 0 mm | - | 0 W/m² | - |
| 1778043211 | 13.89° C | 76% | 1009.8 hPa | 0 mm | - | 0 W/m² | - |
| 1778042908 | 14.44° C | 74% | 1009.9 hPa | 0 mm | - | 0 W/m² | - |
| 1778042302 | 13.89° C | 72% | 1010 hPa | 0 mm | - | 0 W/m² | - |
| 1778042000 | 14.44° C | 71% | 1010 hPa | 0 mm | - | 0 W/m² | - |
| 1778041698 | 13.33° C | 78% | 1009.9 hPa | 0 mm | - | 0 W/m² | - |
| 1778041397 | 13.33° C | 82% | 1009.7 hPa | 0 mm | - | 0 W/m² | - |
| 1778041095 | 13.33° C | 81% | 1009.8 hPa | 0 mm | - | 0 W/m² | - |
| 1778040792 | 13.89° C | 80% | 1010 hPa | 0 mm | - | 0 W/m² | - |
| 1778040489 | 15° C | 74% | 1010 hPa | 0 mm | - | 0 W/m² | - |
| 1778039277 | 15.56° C | 62% | 1010.1 hPa | 0 mm | - | 0 W/m² | - |
| 1778038974 | 15.56° C | 61% | 1010 hPa | 0 mm | - | 0 W/m² | - |
| 1778038368 | 15.56° C | 63% | 1010.2 hPa | 0 mm | - | 0 W/m² | - |
| 1778038065 | 15.56° C | 61% | 1010.4 hPa | 0 mm | - | 0 W/m² | - |
| 1778037762 | 15.56° C | 62% | 1010.1 hPa | 0 mm | - | 0 W/m² | - |
| 1778037458 | 15.56° C | 64% | 1009.8 hPa | 0 mm | - | 0 W/m² | - |
| 1778037156 | 16.11° C | 62% | 1009.8 hPa | 0 mm | - | 0 W/m² | - |
| 1778036854 | 16.11° C | 61% | 1009.9 hPa | 0 mm | - | 0 W/m² | - |
| 1778036551 | 16.11° C | 61% | 1010.1 hPa | 0 mm | - | 0 W/m² | - |
| 1778035641 | 16.11° C | 60% | 1010.3 hPa | 0 mm | - | 0 W/m² | - |
| 1778035338 | 16.11° C | 60% | 1010.6 hPa | 0 mm | - | 0 W/m² | - |
| 1778035034 | 16.11° C | 59% | 1010.7 hPa | 0 mm | - | 0 W/m² | - |
* Rain latest hour (hover to see other rain measurements)
** Current wind speed in m/s (hover to see current wind gust speed)